Time;durP1;ratioP1;P1;durP2;ratioP2;P2;SDS_P1;SDS_P2;PMS_P1;PMS_P2;Temp;Humidity;BMP_temperature;BMP_pressure;BME280_temperature;BME280_humidity;BME280_pressure;Samples;Min_cycle;Max_cycle;Signal;HPM_P1;HPM_P2
2023/11/26 05:23:07;;;;;;;1999.90;999.90;;;;;;;;;;5153789;23;20110;-66
2023/11/26 05:25:33;;;;;;;1999.90;999.90;;;;;;;;;;4933775;29;20080;-66
2023/11/26 05:27:59;;;;;;;1999.90;999.90;;;;;;;;;;4933721;29;20020;-68
2023/11/26 05:30:25;;;;;;;1999.90;999.90;;;;;;;;;;4933614;29;20104;-68
2023/11/26 05:32:51;;;;;;;1999.90;999.90;;;;;;;;;;4914709;29;20036;-68
2023/11/26 05:35:19;;;;;;;1999.90;999.90;;;;;;;;;;4921735;29;20040;-66
2023/11/26 05:37:45;;;;;;;1999.90;999.90;;;;;;;;;;4914435;29;20024;-66
2023/11/26 05:40:12;;;;;;;1999.90;999.90;;;;;;;;;;4914411;29;20036;-66
2023/11/26 05:42:39;;;;;;;1999.90;999.90;;;;;;;;;;4914990;29;20021;-66
2023/11/26 05:45:05;;;;;;;1999.90;999.90;;;;;;;;;;4914556;29;20032;-67
2023/11/26 05:47:32;;;;;;;1999.90;999.90;;;;;;;;;;4915045;29;20028;-67
2023/11/26 05:49:58;;;;;;;1999.90;999.90;;;;;;;;;;4914380;29;20039;-68
2023/11/26 05:52:24;;;;;;;1999.90;999.90;;;;;;;;;;4914545;29;20032;-66
2023/11/26 05:54:51;;;;;;;1999.90;999.90;;;;;;;;;;4914644;29;20042;-66
2023/11/26 05:57:17;;;;;;;1999.90;999.90;;;;;;;;;;4914195;29;20380;-67
2023/11/26 05:59:43;;;;;;;1999.90;999.90;;;;;;;;;;4914433;29;20028;-66
2023/11/26 06:02:10;;;;;;;1999.90;999.90;;;;;;;;;;4914066;29;20052;-66
2023/11/26 06:04:36;;;;;;;1999.90;999.90;;;;;;;;;;4931880;29;20020;-67
2023/11/26 06:07:05;;;;;;;1999.90;999.90;;;;;;;;;;4914894;29;20058;-67
2023/11/26 06:09:32;;;;;;;1999.90;999.90;;;;;;;;;;4932344;29;20500;-66
2023/11/26 06:11:58;;;;;;;1999.90;999.90;;;;;;;;;;4933282;29;20035;-68
2023/11/26 06:14:24;;;;;;;1999.90;999.90;;;;;;;;;;4932297;29;20475;-69
2023/11/26 06:16:50;;;;;;;1999.90;999.90;;;;;;;;;;4932355;29;20399;-69
2023/11/26 06:19:16;;;;;;;1999.90;999.90;;;;;;;;;;4932330;29;20083;-69
2023/11/26 06:21:43;;;;;;;1999.90;999.90;;;;;;;;;;4932455;29;20051;-69
2023/11/26 06:24:09;;;;;;;1999.90;999.90;;;;;;;;;;4948170;29;20036;-70
2023/11/26 06:26:35;;;;;;;1999.90;999.90;;;;;;;;;;4934214;29;20047;-70
2023/11/26 06:29:02;;;;;;;1999.90;999.90;;;;;;;;;;4949359;29;20050;-69
2023/11/26 06:31:29;;;;;;;1999.90;999.90;;;;;;;;;;4952133;29;20074;-66
2023/11/26 06:33:57;;;;;;;1999.90;999.90;;;;;;;;;;4951479;28;20019;-69
2023/11/26 06:36:24;;;;;;;1999.90;999.90;;;;;;;;;;4951485;29;20027;-67
2023/11/26 06:38:51;;;;;;;1999.90;999.90;;;;;;;;;;4949340;29;20042;-67
2023/11/26 06:41:21;;;;;;;1999.90;999.90;;;;;;;;;;4951938;29;20046;-67
2023/11/26 06:43:47;;;;;;;1999.90;999.90;;;;;;;;;;4951639;29;20029;-69
2023/11/26 06:46:17;;;;;;;1999.90;999.90;;;;;;;;;;4951621;28;20036;-69
2023/11/26 06:48:46;;;;;;;1999.90;999.90;;;;;;;;;;4933981;29;20046;-69
2023/11/26 06:51:13;;;;;;;1999.90;999.90;;;;;;;;;;4949318;29;20394;-69
2023/11/26 06:53:39;;;;;;;1999.90;999.90;;;;;;;;;;4951740;29;20063;-70
2023/11/26 06:56:06;;;;;;;1999.90;999.90;;;;;;;;;;4951660;29;20046;-69
2023/11/26 06:58:33;;;;;;;1999.90;999.90;;;;;;;;;;4951311;29;20031;-68
2023/11/26 07:00:59;;;;;;;1999.90;999.90;;;;;;;;;;4952192;29;20070;-68
2023/11/26 07:03:25;;;;;;;1999.90;999.90;;;;;;;;;;4953540;28;20549;-68
2023/11/26 07:05:51;;;;;;;1999.90;999.90;;;;;;;;;;4952225;28;20097;-68
2023/11/26 07:08:18;;;;;;;1999.90;999.90;;;;;;;;;;4952506;28;20019;-67
2023/11/26 07:10:44;;;;;;;1999.90;999.90;;;;;;;;;;4955462;29;20594;-69
2023/11/26 07:13:10;;;;;;;1999.90;999.90;;;;;;;;;;4955278;28;20533;-69
2023/11/26 07:15:36;;;;;;;1999.90;999.90;;;;;;;;;;4954859;29;20059;-68
2023/11/26 07:18:03;;;;;;;1999.90;999.90;;;;;;;;;;4955072;29;20465;-67
2023/11/26 07:20:29;;;;;;;1999.90;999.90;;;;;;;;;;4952300;29;20026;-68
2023/11/26 07:22:55;;;;;;;1999.90;999.90;;;;;;;;;;4953894;28;20046;-69
2023/11/26 07:25:22;;;;;;;1999.90;999.90;;;;;;;;;;4954517;28;20126;-70
2023/11/26 07:27:48;;;;;;;1999.90;999.90;;;;;;;;;;4937531;29;20042;-66
2023/11/26 07:30:14;;;;;;;1999.90;999.90;;;;;;;;;;4954595;29;20034;-67
2023/11/26 07:32:44;;;;;;;1999.90;999.90;;;;;;;;;;4954877;29;20471;-68
2023/11/26 07:35:10;;;;;;;1999.90;999.90;;;;;;;;;;4952876;29;20110;-68
2023/11/26 07:37:36;;;;;;;1999.90;999.90;;;;;;;;;;4954350;29;20101;-68
2023/11/26 07:40:05;;;;;;;1999.90;999.90;;;;;;;;;;4954752;29;20090;-67
2023/11/26 07:42:33;;;;;;;1999.90;999.90;;;;;;;;;;4951974;29;20039;-67
2023/11/26 07:44:59;;;;;;;1999.90;999.90;;;;;;;;;;4954377;29;20062;-71
2023/11/26 07:47:26;;;;;;;1999.90;999.90;;;;;;;;;;4954512;28;20125;-70
2023/11/26 07:49:52;;;;;;;1999.90;999.90;;;;;;;;;;4954177;29;20507;-68
2023/11/26 07:52:18;;;;;;;1999.90;999.90;;;;;;;;;;4954838;29;20467;-69
2023/11/26 07:54:44;;;;;;;1999.90;999.90;;;;;;;;;;4954603;29;20035;-69
2023/11/26 07:57:10;;;;;;;1999.90;999.90;;;;;;;;;;4954867;29;20035;-68
2023/11/26 07:59:36;;;;;;;1999.90;999.90;;;;;;;;;;4954698;29;20360;-67
2023/11/26 08:02:04;;;;;;;1999.90;999.90;;;;;;;;;;4954525;29;20027;-69
2023/11/26 08:04:30;;;;;;;1999.90;999.90;;;;;;;;;;4953963;29;20352;-67
2023/11/26 08:06:56;;;;;;;1999.90;999.90;;;;;;;;;;4953778;29;20122;-67
2023/11/26 08:09:23;;;;;;;1999.90;999.90;;;;;;;;;;4954139;29;20020;-68
2023/11/26 08:11:51;;;;;;;1999.90;999.90;;;;;;;;;;4936378;29;20166;-68
2023/11/26 08:14:18;;;;;;;1999.90;999.90;;;;;;;;;;4953793;29;20038;-68
2023/11/26 08:16:46;;;;;;;1999.90;999.90;;;;;;;;;;4953621;29;20019;-70
2023/11/26 08:19:16;;;;;;;1999.90;999.90;;;;;;;;;;4953299;28;20480;-69
2023/11/26 08:21:42;;;;;;;1999.90;999.90;;;;;;;;;;4953992;28;20482;-70
2023/11/26 08:24:13;;;;;;;1999.90;999.90;;;;;;;;;;4935950;29;20580;-69
2023/11/26 08:26:46;;;;;;;1999.90;999.90;;;;;;;;;;4936224;29;20031;-70
2023/11/26 08:29:13;;;;;;;1999.90;999.90;;;;;;;;;;4952609;29;20482;-69
2023/11/26 08:31:39;;;;;;;1999.90;999.90;;;;;;;;;;4948781;29;20451;-70
2023/11/26 08:34:15;;;;;;;1999.90;999.90;;;;;;;;;;4943564;28;20027;-67
2023/11/26 08:36:42;;;;;;;1999.90;999.90;;;;;;;;;;4927650;29;20513;-68
2023/11/26 08:39:25;;;;;;;1999.90;999.90;;;;;;;;;;4942399;29;20027;-66
2023/11/26 08:41:52;;;;;;;1999.90;999.90;;;;;;;;;;4944757;29;20023;-66
2023/11/26 08:44:18;;;;;;;1999.90;999.90;;;;;;;;;;4947475;29;20038;-68
2023/11/26 08:46:46;;;;;;;1999.90;999.90;;;;;;;;;;4946125;29;20111;-68
2023/11/26 08:49:18;;;;;;;1999.90;999.90;;;;;;;;;;4943389;29;20471;-66
2023/11/26 08:51:46;;;;;;;1999.90;999.90;;;;;;;;;;4938441;29;20331;-68
2023/11/26 08:54:12;;;;;;;1999.90;999.90;;;;;;;;;;4928222;29;20490;-67
2023/11/26 08:56:38;;;;;;;1999.90;999.90;;;;;;;;;;4952781;29;20019;-68
2023/11/26 08:59:06;;;;;;;1999.90;999.90;;;;;;;;;;4948162;28;20383;-65
2023/11/26 09:01:33;;;;;;;1999.90;999.90;;;;;;;;;;4926648;29;20086;-66
2023/11/26 09:03:59;;;;;;;1999.90;999.90;;;;;;;;;;4943960;29;20031;-66
2023/11/26 09:06:25;;;;;;;1999.90;999.90;;;;;;;;;;4937119;29;20066;-67
2023/11/26 09:08:51;;;;;;;1999.90;999.90;;;;;;;;;;4952965;29;20027;-67
2023/11/26 09:11:18;;;;;;;1999.90;999.90;;;;;;;;;;4937344;28;20027;-68
2023/11/26 09:13:45;;;;;;;1999.90;999.90;;;;;;;;;;4953233;29;20379;-68
2023/11/26 09:16:11;;;;;;;1999.90;999.90;;;;;;;;;;4952929;29;20031;-68
2023/11/26 09:18:37;;;;;;;1999.90;999.90;;;;;;;;;;4952975;29;20403;-67
2023/11/26 09:21:04;;;;;;;1999.90;999.90;;;;;;;;;;4956794;28;20484;-69
2023/11/26 09:23:32;;;;;;;1999.90;999.90;;;;;;;;;;4952458;29;20054;-68
2023/11/26 09:25:59;;;;;;;1999.90;999.90;;;;;;;;;;4952317;29;20043;-69
2023/11/26 09:28:25;;;;;;;1999.90;999.90;;;;;;;;;;4952909;29;20027;-66
2023/11/26 09:30:51;;;;;;;1999.90;999.90;;;;;;;;;;4952180;28;20495;-67
2023/11/26 09:33:17;;;;;;;1999.90;999.90;;;;;;;;;;4947581;28;20037;-68
2023/11/26 09:35:43;;;;;;;1999.90;999.90;;;;;;;;;;4948428;29;20046;-68
2023/11/26 09:38:09;;;;;;;1999.90;999.90;;;;;;;;;;4950992;29;20051;-64
2023/11/26 09:40:42;;;;;;;1999.90;999.90;;;;;;;;;;4954188;28;20106;-65
2023/11/26 09:43:09;;;;;;;1999.90;999.90;;;;;;;;;;4946778;28;20074;-65
2023/11/26 09:45:37;;;;;;;1999.90;999.90;;;;;;;;;;4952062;29;20035;-65
2023/11/26 09:48:04;;;;;;;1999.90;999.90;;;;;;;;;;4951661;29;20023;-65
2023/11/26 09:50:30;;;;;;;1999.90;999.90;;;;;;;;;;4952037;29;20501;-65
2023/11/26 09:52:57;;;;;;;1999.90;999.90;;;;;;;;;;4951440;29;20169;-68
2023/11/26 09:55:23;;;;;;;1999.90;999.90;;;;;;;;;;4952017;29;20039;-68
2023/11/26 09:57:50;;;;;;;1999.90;999.90;;;;;;;;;;4951810;29;20157;-67
2023/11/26 10:00:16;;;;;;;1999.90;999.90;;;;;;;;;;4951741;29;20470;-66
2023/11/26 10:02:42;;;;;;;1999.90;999.90;;;;;;;;;;4951463;29;20102;-65
2023/11/26 10:05:23;;;;;;;1999.90;999.90;;;;;;;;;;4951911;29;20039;-65
2023/11/26 10:07:52;;;;;;;1999.90;999.90;;;;;;;;;;4951752;29;20044;-67
2023/11/26 10:10:18;;;;;;;1999.90;999.90;;;;;;;;;;4951760;29;20582;-65
2023/11/26 10:12:56;;;;;;;1999.90;999.90;;;;;;;;;;4951911;29;20152;-70
2023/11/26 10:15:23;;;;;;;1999.90;999.90;;;;;;;;;;4951506;29;20023;-67
2023/11/26 10:18:03;;;;;;;1999.90;999.90;;;;;;;;;;4951673;29;20050;-68
2023/11/26 10:20:29;;;;;;;1999.90;999.90;;;;;;;;;;4949897;29;20039;-66
2023/11/26 10:22:59;;;;;;;1999.90;999.90;;;;;;;;;;4950859;29;20142;-66
2023/11/26 10:25:25;;;;;;;1999.90;999.90;;;;;;;;;;4951266;29;20047;-69
2023/11/26 10:27:52;;;;;;;1999.90;999.90;;;;;;;;;;4951300;29;20086;-65
2023/11/26 10:30:24;;;;;;;1999.90;999.90;;;;;;;;;;4952068;29;20035;-65
2023/11/26 10:33:03;;;;;;;1999.90;999.90;;;;;;;;;;4951926;29;20101;-65
2023/11/26 10:35:46;;;;;;;1999.90;999.90;;;;;;;;;;4952248;29;20027;-68
2023/11/26 10:38:13;;;;;;;1999.90;999.90;;;;;;;;;;4952405;29;20027;-69
2023/11/26 10:40:39;;;;;;;1999.90;999.90;;;;;;;;;;4951991;29;20059;-64
2023/11/26 10:43:09;;;;;;;1999.90;999.90;;;;;;;;;;4954919;28;20813;-65
2023/11/26 10:45:36;;;;;;;1999.90;999.90;;;;;;;;;;4955719;29;20037;-65
2023/11/26 10:48:05;;;;;;;1999.90;999.90;;;;;;;;;;4955947;29;20149;-67
2023/11/26 10:50:34;;;;;;;1999.90;999.90;;;;;;;;;;4955874;29;20053;-66
2023/11/26 10:53:04;;;;;;;1999.90;999.90;;;;;;;;;;4955607;29;20106;-67
2023/11/26 10:55:37;;;;;;;1999.90;999.90;;;;;;;;;;4955759;29;20035;-65
2023/11/26 10:58:07;;;;;;;1999.90;999.90;;;;;;;;;;4955762;29;20029;-63
2023/11/26 11:00:34;;;;;;;1999.90;999.90;;;;;;;;;;4955554;29;20395;-66
2023/11/26 11:03:03;;;;;;;1999.90;999.90;;;;;;;;;;4955565;29;20487;-67
2023/11/26 11:05:30;;;;;;;1999.90;999.90;;;;;;;;;;4955427;29;20050;-67
2023/11/26 11:07:57;;;;;;;1999.90;999.90;;;;;;;;;;4955382;29;20055;-66
2023/11/26 11:10:48;;;;;;;1999.90;999.90;;;;;;;;;;4954919;29;20015;-64
2023/11/26 11:13:16;;;;;;;1999.90;999.90;;;;;;;;;;4954615;29;20038;-65
2023/11/26 11:15:43;;;;;;;1999.90;999.90;;;;;;;;;;4955447;29;20490;-66
2023/11/26 11:18:27;;;;;;;1999.90;999.90;;;;;;;;;;4954950;29;20030;-66
2023/11/26 11:21:08;;;;;;;1999.90;999.90;;;;;;;;;;4955021;29;20495;-63
2023/11/26 11:23:35;;;;;;;1999.90;999.90;;;;;;;;;;4945266;29;20150;-65
2023/11/26 11:26:01;;;;;;;1999.90;999.90;;;;;;;;;;4954069;29;20398;-65
2023/11/26 11:28:40;;;;;;;1999.90;999.90;;;;;;;;;;4954266;29;20035;-63
2023/11/26 11:31:07;;;;;;;1999.90;999.90;;;;;;;;;;4951418;29;20490;-64
2023/11/26 11:33:33;;;;;;;1999.90;999.90;;;;;;;;;;4953512;29;20114;-63
2023/11/26 11:36:03;;;;;;;1999.90;999.90;;;;;;;;;;4953690;29;20039;-63
2023/11/26 11:38:30;;;;;;;1999.90;999.90;;;;;;;;;;4954327;29;20027;-65
2023/11/26 11:40:59;;;;;;;1999.90;999.90;;;;;;;;;;4953911;29;20148;-69
2023/11/26 11:43:31;;;;;;;1999.90;999.90;;;;;;;;;;4954163;29;20035;-62
2023/11/26 11:45:59;;;;;;;1999.90;999.90;;;;;;;;;;4954052;29;20046;-66
2023/11/26 11:48:40;;;;;;;1999.90;999.90;;;;;;;;;;4954307;29;20023;-68
2023/11/26 11:51:25;;;;;;;1999.90;999.90;;;;;;;;;;4954434;29;20047;-72
2023/11/26 11:53:51;;;;;;;1999.90;999.90;;;;;;;;;;4953860;28;20035;-66
2023/11/26 11:56:19;;;;;;;1999.90;999.90;;;;;;;;;;4954416;29;20031;-69
2023/11/26 11:58:45;;;;;;;1999.90;999.90;;;;;;;;;;4954603;29;20038;-67
2023/11/26 12:01:13;;;;;;;1999.90;999.90;;;;;;;;;;4954423;29;20542;-68
2023/11/26 12:03:39;;;;;;;1999.90;999.90;;;;;;;;;;4954243;29;20110;-66
2023/11/26 12:06:10;;;;;;;1999.90;999.90;;;;;;;;;;4954340;29;20102;-67
2023/11/26 12:08:36;;;;;;;1999.90;999.90;;;;;;;;;;4954479;29;20118;-68
2023/11/26 12:11:09;;;;;;;1999.90;999.90;;;;;;;;;;4937028;29;20032;-67
2023/11/26 12:13:44;;;;;;;1999.90;999.90;;;;;;;;;;4954268;29;20456;-65
2023/11/26 12:16:10;;;;;;;1999.90;999.90;;;;;;;;;;4954353;29;20027;-68
2023/11/26 12:18:36;;;;;;;1999.90;999.90;;;;;;;;;;4954021;29;20063;-67
2023/11/26 12:21:06;;;;;;;1999.90;999.90;;;;;;;;;;4954022;29;20062;-67
2023/11/26 12:23:32;;;;;;;1999.90;999.90;;;;;;;;;;4953493;29;20115;-68
2023/11/26 12:25:59;;;;;;;1999.90;999.90;;;;;;;;;;4954047;29;20062;-67
2023/11/26 12:28:25;;;;;;;1999.90;999.90;;;;;;;;;;4954096;29;20471;-68
2023/11/26 12:30:55;;;;;;;1999.90;999.90;;;;;;;;;;4953994;29;20035;-68
2023/11/26 12:33:21;;;;;;;1999.90;999.90;;;;;;;;;;4953838;29;20432;-67
2023/11/26 12:35:48;;;;;;;1999.90;999.90;;;;;;;;;;4953956;29;20035;-66
2023/11/26 12:38:15;;;;;;;1999.90;999.90;;;;;;;;;;4953748;29;20027;-67
2023/11/26 12:40:41;;;;;;;1999.90;999.90;;;;;;;;;;4953728;29;20042;-68
2023/11/26 12:43:07;;;;;;;1999.90;999.90;;;;;;;;;;4953725;29;20027;-67
2023/11/26 12:45:34;;;;;;;1999.90;999.90;;;;;;;;;;4953668;29;20043;-68
2023/11/26 12:48:00;;;;;;;1999.90;999.90;;;;;;;;;;4953620;29;20019;-69
2023/11/26 12:50:40;;;;;;;1999.90;999.90;;;;;;;;;;4953171;29;20360;-68
2023/11/26 12:53:10;;;;;;;1999.90;999.90;;;;;;;;;;4955959;28;20027;-70
2023/11/26 12:55:43;;;;;;;1999.90;999.90;;;;;;;;;;4961639;28;20069;-70
2023/11/26 12:58:17;;;;;;;1999.90;999.90;;;;;;;;;;4952444;29;20089;-68
2023/11/26 13:00:43;;;;;;;1999.90;999.90;;;;;;;;;;4952998;29;20171;-70
2023/11/26 13:03:09;;;;;;;1999.90;999.90;;;;;;;;;;4952704;29;20102;-68
2023/11/26 13:05:37;;;;;;;1999.90;999.90;;;;;;;;;;4951634;28;20508;-67
2023/11/26 13:08:16;;;;;;;1999.90;999.90;;;;;;;;;;4957245;28;20085;-68
2023/11/26 13:10:43;;;;;;;1999.90;999.90;;;;;;;;;;4949325;28;20390;-67
2023/11/26 13:13:13;;;;;;;1999.90;999.90;;;;;;;;;;4953122;29;20074;-66
2023/11/26 13:15:42;;;;;;;1999.90;999.90;;;;;;;;;;4952988;28;20113;-68
2023/11/26 13:18:12;;;;;;;1999.90;999.90;;;;;;;;;;4953087;29;20031;-67
2023/11/26 13:20:38;;;;;;;1999.90;999.90;;;;;;;;;;4951766;29;20038;-65
2023/11/26 13:23:04;;;;;;;1999.90;999.90;;;;;;;;;;4952068;29;20070;-67
2023/11/26 13:25:34;;;;;;;1999.90;999.90;;;;;;;;;;4952158;29;20042;-66
2023/11/26 13:28:00;;;;;;;1999.90;999.90;;;;;;;;;;4952366;29;20037;-64
2023/11/26 13:30:26;;;;;;;1999.90;999.90;;;;;;;;;;4951783;29;20019;-65
2023/11/26 13:32:53;;;;;;;1999.90;999.90;;;;;;;;;;4952660;29;20031;-66
2023/11/26 13:35:19;;;;;;;1999.90;999.90;;;;;;;;;;4952279;29;20023;-68
2023/11/26 13:37:45;;;;;;;1999.90;999.90;;;;;;;;;;4952087;29;20538;-64
2023/11/26 13:40:15;;;;;;;1999.90;999.90;;;;;;;;;;4952275;29;20712;-65
2023/11/26 13:42:43;;;;;;;1999.90;999.90;;;;;;;;;;4952237;29;20034;-66
2023/11/26 13:45:09;;;;;;;1999.90;999.90;;;;;;;;;;4952289;28;20031;-66
2023/11/26 13:47:35;;;;;;;1999.90;999.90;;;;;;;;;;4965667;28;20058;-68
2023/11/26 13:50:01;;;;;;;1999.90;999.90;;;;;;;;;;4971356;28;20034;-67
2023/11/26 13:52:27;;;;;;;1999.90;999.90;;;;;;;;;;4971738;28;20110;-65
2023/11/26 13:54:53;;;;;;;1999.90;999.90;;;;;;;;;;4958756;28;20030;-65
2023/11/26 13:57:19;;;;;;;1999.90;999.90;;;;;;;;;;4951881;29;20027;-66
2023/11/26 13:59:46;;;;;;;1999.90;999.90;;;;;;;;;;4934338;29;20383;-66
2023/11/26 14:02:13;;;;;;;1999.90;999.90;;;;;;;;;;4951705;29;20293;-65
2023/11/26 14:04:40;;;;;;;1999.90;999.90;;;;;;;;;;4951546;28;20027;-66
2023/11/26 14:07:06;;;;;;;1999.90;999.90;;;;;;;;;;4951433;29;20023;-64
2023/11/26 14:09:32;;;;;;;1999.90;999.90;;;;;;;;;;4951500;29;20034;-67
2023/11/26 14:11:58;;;;;;;1999.90;999.90;;;;;;;;;;4951717;29;20031;-66
2023/11/26 14:14:27;;;;;;;1999.90;999.90;;;;;;;;;;4951866;29;20476;-66
2023/11/26 14:16:55;;;;;;;1999.90;999.90;;;;;;;;;;4950474;28;20034;-66
2023/11/26 14:19:21;;;;;;;1999.90;999.90;;;;;;;;;;4954983;28;20214;-66
2023/11/26 14:21:47;;;;;;;1999.90;999.90;;;;;;;;;;4960057;28;20131;-67
2023/11/26 14:24:14;;;;;;;1999.90;999.90;;;;;;;;;;4950051;29;20862;-62
2023/11/26 14:26:40;;;;;;;1999.90;999.90;;;;;;;;;;4951263;28;20043;-64
2023/11/26 14:29:06;;;;;;;1999.90;999.90;;;;;;;;;;4950677;29;20159;-64
2023/11/26 14:31:32;;;;;;;1999.90;999.90;;;;;;;;;;4950449;29;20386;-64
2023/11/26 14:33:58;;;;;;;1999.90;999.90;;;;;;;;;;4947801;28;20154;-64
2023/11/26 14:36:32;;;;;;;1999.90;999.90;;;;;;;;;;4949931;29;20118;-66
2023/11/26 14:38:58;;;;;;;1999.90;999.90;;;;;;;;;;4933173;29;20487;-64
2023/11/26 14:41:25;;;;;;;1999.90;999.90;;;;;;;;;;4952146;29;20038;-63
2023/11/26 14:43:51;;;;;;;1999.90;999.90;;;;;;;;;;4947679;28;20023;-65
2023/11/26 14:46:18;;;;;;;1999.90;999.90;;;;;;;;;;4950838;28;20036;-66
2023/11/26 14:48:45;;;;;;;1999.90;999.90;;;;;;;;;;4951255;29;20035;-66
2023/11/26 14:51:11;;;;;;;1999.90;999.90;;;;;;;;;;4967964;28;20030;-64
2023/11/26 14:53:37;;;;;;;1999.90;999.90;;;;;;;;;;4970778;28;20030;-65
2023/11/26 14:56:05;;;;;;;1999.90;999.90;;;;;;;;;;4970870;28;20094;-65
2023/11/26 14:58:32;;;;;;;1999.90;999.90;;;;;;;;;;4970680;28;20030;-63
2023/11/26 15:00:58;;;;;;;1999.90;999.90;;;;;;;;;;4972169;28;20367;-63
2023/11/26 15:03:26;;;;;;;1999.90;999.90;;;;;;;;;;4971726;28;20082;-64
2023/11/26 15:05:53;;;;;;;1999.90;999.90;;;;;;;;;;4960736;28;20042;-64
2023/11/26 15:08:24;;;;;;;1999.90;999.90;;;;;;;;;;4976627;28;20034;-66
2023/11/26 15:10:51;;;;;;;1999.90;999.90;;;;;;;;;;4961965;28;20122;-63
2023/11/26 15:13:17;;;;;;;1999.90;999.90;;;;;;;;;;4952918;28;20031;-64
2023/11/26 15:15:44;;;;;;;1999.90;999.90;;;;;;;;;;4951470;29;20035;-64
2023/11/26 15:18:10;;;;;;;1999.90;999.90;;;;;;;;;;4951517;29;20131;-65
2023/11/26 15:20:36;;;;;;;1999.90;999.90;;;;;;;;;;4951607;29;20503;-64
2023/11/26 15:23:02;;;;;;;1999.90;999.90;;;;;;;;;;4951379;29;20083;-64
2023/11/26 15:25:28;;;;;;;1999.90;999.90;;;;;;;;;;4951207;29;20126;-65
2023/11/26 15:27:54;;;;;;;1999.90;999.90;;;;;;;;;;4951659;28;20170;-65
2023/11/26 15:30:20;;;;;;;1999.90;999.90;;;;;;;;;;4954416;29;20038;-64
2023/11/26 15:32:46;;;;;;;1999.90;999.90;;;;;;;;;;4955561;28;20039;-64
2023/11/26 15:35:13;;;;;;;1999.90;999.90;;;;;;;;;;4958362;28;20042;-64
2023/11/26 15:37:39;;;;;;;1999.90;999.90;;;;;;;;;;4954317;29;20038;-64
2023/11/26 15:40:10;;;;;;;1999.90;999.90;;;;;;;;;;4954827;29;20046;-65
2023/11/26 15:42:37;;;;;;;1999.90;999.90;;;;;;;;;;4954536;29;20049;-64
2023/11/26 15:45:03;;;;;;;1999.90;999.90;;;;;;;;;;4954003;29;20027;-64
2023/11/26 15:47:29;;;;;;;1999.90;999.90;;;;;;;;;;4954568;29;20035;-63
2023/11/26 15:49:55;;;;;;;1999.90;999.90;;;;;;;;;;4953514;29;20038;-64
2023/11/26 15:52:22;;;;;;;1999.90;999.90;;;;;;;;;;4953346;29;20611;-62
2023/11/26 15:54:49;;;;;;;1999.90;999.90;;;;;;;;;;4953392;29;20114;-64
2023/11/26 15:57:16;;;;;;;1999.90;999.90;;;;;;;;;;4953948;29;20110;-63
2023/11/26 15:59:42;;;;;;;1999.90;999.90;;;;;;;;;;4953993;29;20040;-63
2023/11/26 16:02:08;;;;;;;1999.90;999.90;;;;;;;;;;4953915;29;20479;-66
2023/11/26 16:04:34;;;;;;;1999.90;999.90;;;;;;;;;;4954402;29;20110;-64
2023/11/26 16:07:02;;;;;;;1999.90;999.90;;;;;;;;;;4954207;29;20031;-63
2023/11/26 16:09:28;;;;;;;1999.90;999.90;;;;;;;;;;4954087;29;20075;-63
2023/11/26 16:11:54;;;;;;;1999.90;999.90;;;;;;;;;;4935688;29;20032;-63
2023/11/26 16:14:21;;;;;;;1999.90;999.90;;;;;;;;;;4936395;29;20027;-61
2023/11/26 16:16:47;;;;;;;1999.90;999.90;;;;;;;;;;4954114;29;20023;-65
2023/11/26 16:19:13;;;;;;;1999.90;999.90;;;;;;;;;;4954067;29;20085;-66
2023/11/26 16:21:41;;;;;;;1999.90;999.90;;;;;;;;;;4953825;29;20027;-64
2023/11/26 16:24:07;;;;;;;1999.90;999.90;;;;;;;;;;4953261;29;20778;-64
2023/11/26 16:26:33;;;;;;;1999.90;999.90;;;;;;;;;;4954094;29;20090;-65
2023/11/26 16:28:59;;;;;;;1999.90;999.90;;;;;;;;;;4953542;29;20066;-65
2023/11/26 16:31:25;;;;;;;1999.90;999.90;;;;;;;;;;4953534;29;20094;-62
2023/11/26 16:33:52;;;;;;;1999.90;999.90;;;;;;;;;;4953409;29;20031;-65
2023/11/26 16:36:20;;;;;;;1999.90;999.90;;;;;;;;;;4952778;29;20098;-65
2023/11/26 16:38:47;;;;;;;1999.90;999.90;;;;;;;;;;4952842;29;20313;-62
2023/11/26 16:41:17;;;;;;;1999.90;999.90;;;;;;;;;;4952955;28;20046;-63
2023/11/26 16:43:45;;;;;;;1999.90;999.90;;;;;;;;;;4952623;28;20058;-66
2023/11/26 16:46:12;;;;;;;1999.90;999.90;;;;;;;;;;4953140;29;20047;-68
2023/11/26 16:48:39;;;;;;;1999.90;999.90;;;;;;;;;;4953021;28;20062;-68
2023/11/26 16:51:05;;;;;;;1999.90;999.90;;;;;;;;;;4953021;28;20043;-66
2023/11/26 16:53:32;;;;;;;1999.90;999.90;;;;;;;;;;4952959;29;20034;-68
2023/11/26 16:55:58;;;;;;;1999.90;999.90;;;;;;;;;;4953450;29;20714;-71
2023/11/26 16:58:25;;;;;;;1999.90;999.90;;;;;;;;;;4952591;29;20023;-68
2023/11/26 17:00:51;;;;;;;1999.90;999.90;;;;;;;;;;4953106;28;20034;-68
2023/11/26 17:03:17;;;;;;;1999.90;999.90;;;;;;;;;;4952801;29;20045;-67
2023/11/26 17:05:44;;;;;;;1999.90;999.90;;;;;;;;;;4952457;29;20102;-65
2023/11/26 17:08:11;;;;;;;1999.90;999.90;;;;;;;;;;4951199;28;20020;-66
2023/11/26 17:10:37;;;;;;;1999.90;999.90;;;;;;;;;;4953013;29;20117;-72
2023/11/26 17:13:03;;;;;;;1999.90;999.90;;;;;;;;;;4959944;28;20537;-70
2023/11/26 17:15:30;;;;;;;1999.90;999.90;;;;;;;;;;4971792;28;20420;-68
2023/11/26 17:17:56;;;;;;;1999.90;999.90;;;;;;;;;;4970764;28;20027;-66
2023/11/26 17:20:22;;;;;;;1999.90;999.90;;;;;;;;;;4971637;28;20038;-68
2023/11/26 17:22:48;;;;;;;1999.90;999.90;;;;;;;;;;4971445;28;20039;-70
2023/11/26 17:25:14;;;;;;;1999.90;999.90;;;;;;;;;;4971627;28;20042;-71
2023/11/26 17:27:40;;;;;;;1999.90;999.90;;;;;;;;;;4966998;28;20077;-71
2023/11/26 17:30:07;;;;;;;1999.90;999.90;;;;;;;;;;4952822;28;20028;-68
2023/11/26 17:32:33;;;;;;;1999.90;999.90;;;;;;;;;;4952333;28;20506;-70
2023/11/26 17:34:59;;;;;;;1999.90;999.90;;;;;;;;;;4970963;28;20035;-71
2023/11/26 17:37:25;;;;;;;1999.90;999.90;;;;;;;;;;4967928;28;20486;-66
2023/11/26 17:39:53;;;;;;;1999.90;999.90;;;;;;;;;;4971213;28;20037;-71
2023/11/26 17:42:19;;;;;;;1999.90;999.90;;;;;;;;;;4971287;28;20022;-72
2023/11/26 17:44:45;;;;;;;1999.90;999.90;;;;;;;;;;4968222;28;20042;-70
2023/11/26 17:47:12;;;;;;;1999.90;999.90;;;;;;;;;;4971430;28;20051;-69
2023/11/26 17:49:43;;;;;;;1999.90;999.90;;;;;;;;;;4972128;28;20022;-68
2023/11/26 17:52:09;;;;;;;1999.90;999.90;;;;;;;;;;4965179;28;20030;-69
2023/11/26 17:54:35;;;;;;;1999.90;999.90;;;;;;;;;;4952222;29;20058;-67
2023/11/26 17:57:01;;;;;;;1999.90;999.90;;;;;;;;;;4951193;29;20035;-70
2023/11/26 17:59:27;;;;;;;1999.90;999.90;;;;;;;;;;4952509;29;20460;-68
2023/11/26 18:01:53;;;;;;;1999.90;999.90;;;;;;;;;;4952292;28;20027;-70
2023/11/26 18:04:20;;;;;;;1999.90;999.90;;;;;;;;;;4952408;29;20024;-70
2023/11/26 18:06:46;;;;;;;1999.90;999.90;;;;;;;;;;4951998;29;20086;-68
2023/11/26 18:09:12;;;;;;;1999.90;999.90;;;;;;;;;;4952567;29;20107;-67
2023/11/26 18:11:38;;;;;;;1999.90;999.90;;;;;;;;;;4952381;29;20062;-67
2023/11/26 18:14:05;;;;;;;1999.90;999.90;;;;;;;;;;4952001;28;20034;-70
2023/11/26 18:16:34;;;;;;;1999.90;999.90;;;;;;;;;;4933683;28;20094;-69
2023/11/26 18:19:00;;;;;;;1999.90;999.90;;;;;;;;;;4953217;28;20035;-69
2023/11/26 18:21:26;;;;;;;1999.90;999.90;;;;;;;;;;4951841;29;20089;-68
2023/11/26 18:23:54;;;;;;;1999.90;999.90;;;;;;;;;;4951729;29;20059;-69
2023/11/26 18:26:20;;;;;;;1999.90;999.90;;;;;;;;;;4952259;29;20118;-69
2023/11/26 18:28:46;;;;;;;1999.90;999.90;;;;;;;;;;4952027;29;20073;-69
2023/11/26 18:31:13;;;;;;;1999.90;999.90;;;;;;;;;;4952278;29;20035;-69
2023/11/26 18:33:39;;;;;;;1999.90;999.90;;;;;;;;;;4952165;29;20030;-67
2023/11/26 18:36:06;;;;;;;1999.90;999.90;;;;;;;;;;4951498;29;20181;-68
2023/11/26 18:38:32;;;;;;;1999.90;999.90;;;;;;;;;;4951560;29;20027;-68
2023/11/26 18:40:58;;;;;;;1999.90;999.90;;;;;;;;;;4951627;29;20155;-66
2023/11/26 18:43:24;;;;;;;1999.90;999.90;;;;;;;;;;4951403;29;20020;-71
2023/11/26 18:45:54;;;;;;;1999.90;999.90;;;;;;;;;;4951344;29;20399;-67
2023/11/26 18:48:20;;;;;;;1999.90;999.90;;;;;;;;;;4951694;29;20060;-69
2023/11/26 18:50:46;;;;;;;1999.90;999.90;;;;;;;;;;4933699;29;20043;-68
2023/11/26 18:53:13;;;;;;;1999.90;999.90;;;;;;;;;;4950967;29;20032;-67
2023/11/26 18:55:39;;;;;;;1999.90;999.90;;;;;;;;;;4951811;29;20031;-70
2023/11/26 18:58:05;;;;;;;1999.90;999.90;;;;;;;;;;4965630;28;20023;-69
2023/11/26 19:00:31;;;;;;;1999.90;999.90;;;;;;;;;;4969190;28;20023;-67
2023/11/26 19:03:00;;;;;;;1999.90;999.90;;;;;;;;;;4950900;28;20020;-67
2023/11/26 19:05:26;;;;;;;1999.90;999.90;;;;;;;;;;4953689;29;20031;-67